createdAt,value
2018-07-27T00:02:33.617Z,26.70
2018-07-27T00:07:36.982Z,26.50
2018-07-27T00:12:40.436Z,26.00
2018-07-27T00:17:43.755Z,26.00
2018-07-27T00:22:47.036Z,25.50
2018-07-27T00:27:50.371Z,25.60
2018-07-27T00:32:53.618Z,25.60
2018-07-27T00:37:56.872Z,25.90
2018-07-27T00:43:00.134Z,25.10
2018-07-27T00:48:03.430Z,24.90
2018-07-27T00:53:06.724Z,24.40
2018-07-27T00:58:10.060Z,24.20
2018-07-27T01:03:13.311Z,24.50
2018-07-27T01:08:16.775Z,24.70
2018-07-27T01:13:20.086Z,24.70
2018-07-27T01:18:23.350Z,24.60
2018-07-27T01:23:26.655Z,24.60
2018-07-27T01:28:29.964Z,24.40
2018-07-27T01:33:33.233Z,24.30
2018-07-27T01:38:36.561Z,24.50
2018-07-27T01:43:39.835Z,24.60
2018-07-27T01:48:43.095Z,24.20
2018-07-27T01:53:46.371Z,23.80
2018-07-27T01:58:49.629Z,24.30
2018-07-27T02:03:52.932Z,23.80
2018-07-27T02:08:56.324Z,23.90
2018-07-27T02:13:59.586Z,23.60
2018-07-27T02:19:02.860Z,23.50
2018-07-27T02:24:06.203Z,23.60
2018-07-27T02:29:09.552Z,23.60
2018-07-27T02:34:12.896Z,23.50
2018-07-27T02:39:16.166Z,23.50
2018-07-27T02:44:19.426Z,23.60
2018-07-27T02:49:22.718Z,23.50
2018-07-27T02:54:25.963Z,23.30
2018-07-27T02:59:29.201Z,23.00
2018-07-27T03:04:32.443Z,23.20
2018-07-27T03:09:35.694Z,23.30
2018-07-27T03:14:39.050Z,23.40
2018-07-27T03:19:42.287Z,23.60
2018-07-27T03:24:45.530Z,23.40
2018-07-27T03:29:48.786Z,23.30
2018-07-27T03:34:52.044Z,22.90
2018-07-27T03:39:55.619Z,22.50
2018-07-27T03:44:58.902Z,21.90
2018-07-27T03:50:02.151Z,21.60
2018-07-27T03:55:05.474Z,21.60
2018-07-27T04:00:10.459Z,22.10
2018-07-27T04:05:13.755Z,22.60
2018-07-27T04:10:17.059Z,22.80
2018-07-27T04:15:20.308Z,23.00
2018-07-27T04:20:23.570Z,23.10
2018-07-27T04:25:26.874Z,22.60
2018-07-27T04:30:30.180Z,22.40
2018-07-27T04:35:33.513Z,22.60
2018-07-27T04:40:37.920Z,22.70
2018-07-27T04:50:44.183Z,22.40
2018-07-27T04:55:47.430Z,22.70
2018-07-27T05:00:50.770Z,23.20
2018-07-27T05:05:54.180Z,23.70
2018-07-27T05:10:57.496Z,23.50
2018-07-27T05:16:00.791Z,24.10
2018-07-27T05:21:04.043Z,24.70
2018-07-27T05:26:07.376Z,24.50
2018-07-27T05:31:10.842Z,24.80
2018-07-27T05:36:14.132Z,25.50
2018-07-27T05:41:17.636Z,25.70
2018-07-27T05:46:21.034Z,25.50
2018-07-27T05:51:24.292Z,25.90
2018-07-27T05:56:27.628Z,26.30
2018-07-27T06:01:30.965Z,26.40
2018-07-27T06:06:34.242Z,26.70
2018-07-27T06:11:37.563Z,26.80
2018-07-27T06:16:40.863Z,27.10
2018-07-27T06:21:44.111Z,27.10
2018-07-27T06:26:47.396Z,27.10
2018-07-27T06:31:50.733Z,27.70
2018-07-27T06:36:54.148Z,28.00
2018-07-27T06:41:58.076Z,28.30
2018-07-27T06:47:01.471Z,28.30
2018-07-27T06:52:04.829Z,28.40
2018-07-27T06:57:08.164Z,28.50
2018-07-27T07:02:11.880Z,28.90
2018-07-27T07:07:15.194Z,28.90
2018-07-27T07:12:18.539Z,28.60
2018-07-27T07:17:21.824Z,29.00
2018-07-27T07:22:25.170Z,29.00
2018-07-27T07:27:28.503Z,29.10
2018-07-27T07:32:31.750Z,29.20
2018-07-27T07:37:35.024Z,29.50
2018-07-27T07:42:38.368Z,29.20
2018-07-27T07:47:41.714Z,29.30
2018-07-27T07:52:45.015Z,29.40
2018-07-27T07:57:48.268Z,29.70
2018-07-27T08:02:51.586Z,29.90
2018-07-27T08:07:54.937Z,30.00
2018-07-27T08:12:58.296Z,30.20
2018-07-27T08:23:04.673Z,30.80
2018-07-27T08:28:19.188Z,30.50
2018-07-27T08:33:22.460Z,31.00
2018-07-27T08:38:25.764Z,31.10
2018-07-27T08:43:29.110Z,31.70
2018-07-27T08:53:35.416Z,31.30
2018-07-27T08:58:39.748Z,31.70
2018-07-27T09:03:43.003Z,31.60
2018-07-27T09:08:46.432Z,31.80
2018-07-27T09:13:50.089Z,32.30
2018-07-27T09:18:53.820Z,31.90
2018-07-27T09:23:57.158Z,31.90
2018-07-27T09:29:00.547Z,32.20
2018-07-27T09:34:03.913Z,32.70
2018-07-27T09:39:08.711Z,32.80
2018-07-27T09:44:11.984Z,33.10
2018-07-27T09:49:16.112Z,32.80
2018-07-27T09:54:19.349Z,32.30
2018-07-27T09:59:22.635Z,32.90
2018-07-27T10:04:25.981Z,32.60
2018-07-27T10:09:29.298Z,33.20
2018-07-27T10:14:32.602Z,33.50
2018-07-27T10:19:35.855Z,33.30
2018-07-27T10:24:39.325Z,33.30
2018-07-27T10:29:42.589Z,33.60
2018-07-27T10:34:45.902Z,33.90
2018-07-27T10:39:49.155Z,33.90
2018-07-27T10:44:52.440Z,33.90
2018-07-27T10:49:55.802Z,34.60
2018-07-27T10:54:59.113Z,33.90
2018-07-27T11:00:02.413Z,33.70
2018-07-27T11:05:05.824Z,33.90
2018-07-27T11:10:09.867Z,34.40
2018-07-27T11:25:19.427Z,34.40
2018-07-27T11:30:22.694Z,34.80
2018-07-27T11:35:26.089Z,34.30
2018-07-27T11:40:29.371Z,34.30
2018-07-27T11:45:32.627Z,34.50
2018-07-27T11:50:35.955Z,34.70
2018-07-27T11:55:39.191Z,34.90
2018-07-27T12:00:42.511Z,34.60
2018-07-27T12:05:45.765Z,34.90
2018-07-27T12:10:49.048Z,34.60
2018-07-27T12:15:52.242Z,34.50
2018-07-27T12:20:55.790Z,35.00
2018-07-27T12:25:59.077Z,35.50
2018-07-27T12:31:02.310Z,34.70
2018-07-27T12:36:05.887Z,34.60
2018-07-27T12:41:09.139Z,34.60
2018-07-27T12:46:12.418Z,34.80
2018-07-27T12:51:15.679Z,34.80
2018-07-27T12:56:18.918Z,35.30
2018-07-27T13:01:22.167Z,35.80
2018-07-27T13:06:25.642Z,35.70
2018-07-27T13:11:28.899Z,35.40
2018-07-27T13:16:32.167Z,34.80
2018-07-27T13:21:35.454Z,35.10
2018-07-27T13:26:38.707Z,35.10
2018-07-27T13:36:50.257Z,34.70
2018-07-27T13:41:53.495Z,35.00
2018-07-27T13:46:56.959Z,35.00
2018-07-27T13:52:00.366Z,35.20
2018-07-27T13:57:03.787Z,35.20
2018-07-27T14:02:07.367Z,34.90
2018-07-27T14:07:11.402Z,34.60
2018-07-27T14:12:14.649Z,34.80
2018-07-27T14:17:17.956Z,34.80
2018-07-27T14:22:21.210Z,34.90
2018-07-27T14:27:24.477Z,35.00
2018-07-27T14:32:27.758Z,34.80
2018-07-27T14:37:31.126Z,34.70
2018-07-27T14:42:34.453Z,35.10
2018-07-27T14:52:41.116Z,35.50
2018-07-27T14:57:44.337Z,35.30
2018-07-27T15:02:47.578Z,35.00
2018-07-27T15:07:50.923Z,35.00
2018-07-27T15:12:54.155Z,35.30
2018-07-27T15:17:57.390Z,34.70
2018-07-27T15:23:00.670Z,34.80
2018-07-27T15:28:03.988Z,34.60
2018-07-27T15:33:07.278Z,34.90
2018-07-27T15:38:10.549Z,34.60
2018-07-27T15:43:13.790Z,34.60
2018-07-27T15:48:17.127Z,34.50
2018-07-27T15:53:20.415Z,34.60
2018-07-27T15:58:23.652Z,34.50
2018-07-27T16:03:26.885Z,34.50
2018-07-27T16:08:30.198Z,34.60
2018-07-27T16:13:33.438Z,34.50
2018-07-27T16:18:36.707Z,34.50
2018-07-27T16:23:39.946Z,34.60
2018-07-27T16:28:43.179Z,34.30
2018-07-27T16:33:46.424Z,34.40
2018-07-27T16:38:49.691Z,34.20
2018-07-27T16:43:52.918Z,34.10
2018-07-27T16:48:56.154Z,34.30
2018-07-27T16:53:59.444Z,34.20
2018-07-27T16:59:02.678Z,34.00
2018-07-27T17:04:06.050Z,34.10
2018-07-27T17:09:10.112Z,33.90
2018-07-27T17:14:13.351Z,33.90
2018-07-27T17:19:16.612Z,33.80
2018-07-27T17:24:19.974Z,33.80
2018-07-27T17:29:23.224Z,33.70
2018-07-27T17:34:26.462Z,33.60
2018-07-27T17:39:29.729Z,33.60
2018-07-27T17:44:32.973Z,33.40
2018-07-27T17:49:36.218Z,33.30
2018-07-27T17:54:39.470Z,33.20
2018-07-27T17:59:42.866Z,33.20
2018-07-27T18:04:46.123Z,33.00
2018-07-27T18:09:49.411Z,32.90
2018-07-27T18:14:52.630Z,32.80
2018-07-27T18:19:55.896Z,32.60
2018-07-27T18:24:59.327Z,32.50
2018-07-27T18:30:02.679Z,32.40
2018-07-27T18:35:06.514Z,32.10
2018-07-27T18:40:10.118Z,32.10
2018-07-27T18:45:13.381Z,31.80
2018-07-27T18:50:16.666Z,31.60
2018-07-27T18:55:19.930Z,31.50
2018-07-27T19:00:23.354Z,31.30
2018-07-27T19:05:26.648Z,31.30
2018-07-27T19:10:29.910Z,31.20
2018-07-27T19:15:33.150Z,31.20
2018-07-27T19:20:36.430Z,31.10
2018-07-27T19:25:40.535Z,31.10
2018-07-27T19:30:43.844Z,31.10
2018-07-27T19:35:47.055Z,30.80
2018-07-27T19:40:50.306Z,30.70
2018-07-27T19:45:53.737Z,30.50
2018-07-27T19:50:57.667Z,30.40
2018-07-27T19:56:00.979Z,31.00
2018-07-27T20:01:04.273Z,30.90
2018-07-27T20:06:07.534Z,31.20
2018-07-27T20:11:10.803Z,31.20
2018-07-27T20:16:14.069Z,30.60
2018-07-27T20:21:17.470Z,30.20
2018-07-27T20:26:20.758Z,30.30
2018-07-27T20:31:24.051Z,30.30
2018-07-27T20:36:27.318Z,30.20
2018-07-27T20:41:30.589Z,30.40
2018-07-27T20:46:33.835Z,30.40
2018-07-27T20:51:37.123Z,30.30
2018-07-27T20:56:40.514Z,29.90
2018-07-27T21:01:43.758Z,30.10
2018-07-27T21:06:47.003Z,30.20
2018-07-27T21:11:50.334Z,30.10
2018-07-27T21:21:56.599Z,30.00
2018-07-27T21:27:01.043Z,30.00
2018-07-27T21:32:04.318Z,29.50
2018-07-27T21:37:08.769Z,29.70
2018-07-27T21:42:12.256Z,29.50
2018-07-27T21:47:15.571Z,29.30
2018-07-27T21:52:18.903Z,29.40
2018-07-27T21:57:22.203Z,29.30
2018-07-27T22:02:25.465Z,29.00
2018-07-27T22:07:28.766Z,29.10
2018-07-27T22:12:32.027Z,29.10
2018-07-27T22:17:35.313Z,29.10
2018-07-27T22:22:38.554Z,29.10
2018-07-27T22:27:41.917Z,29.10
2018-07-27T22:32:45.259Z,29.10
2018-07-27T22:37:48.524Z,29.20
2018-07-27T22:42:51.895Z,29.20
2018-07-27T22:47:55.183Z,29.00
2018-07-27T22:52:58.459Z,28.90
2018-07-27T22:58:01.787Z,28.80
2018-07-27T23:03:05.117Z,28.70
2018-07-27T23:08:08.427Z,28.60
2018-07-27T23:13:11.638Z,28.50
2018-07-27T23:18:14.903Z,28.60
2018-07-27T23:23:18.141Z,28.60
2018-07-27T23:28:21.413Z,28.60
2018-07-27T23:33:24.660Z,28.60
2018-07-27T23:38:27.954Z,28.60
2018-07-27T23:43:31.219Z,28.60
2018-07-27T23:48:34.490Z,27.80
2018-07-27T23:53:37.861Z,28.00
2018-07-27T23:58:41.186Z,28.00
